createdAt,value
2022-11-16T00:00:24.453Z,4.30
2022-11-16T00:01:28.182Z,3.58
2022-11-16T00:02:29.944Z,2.92
2022-11-16T00:03:33.131Z,3.50
2022-11-16T00:04:34.789Z,3.50
2022-11-16T00:05:36.449Z,4.18
2022-11-16T00:06:38.222Z,3.50
2022-11-16T00:07:39.991Z,3.80
2022-11-16T00:08:45.264Z,3.90
2022-11-16T00:09:47.149Z,3.35
2022-11-16T00:10:48.846Z,3.70
2022-11-16T00:11:53.407Z,3.75
2022-11-16T00:12:54.979Z,3.55
2022-11-16T00:13:56.588Z,4.00
2022-11-16T00:14:58.196Z,4.00
2022-11-16T00:16:00.540Z,4.47
2022-11-16T00:17:03.009Z,4.05
2022-11-16T00:18:04.703Z,5.63
2022-11-16T00:19:07.361Z,3.45
2022-11-16T00:20:09.531Z,3.75
2022-11-16T00:21:11.347Z,3.90
2022-11-16T00:22:13.073Z,3.65
2022-11-16T00:23:14.662Z,4.10
2022-11-16T00:24:18.185Z,3.22
2022-11-16T00:25:19.798Z,3.80
2022-11-16T00:26:24.144Z,3.20
2022-11-16T00:27:25.766Z,3.40
2022-11-16T00:28:28.459Z,3.53
2022-11-16T00:29:30.113Z,3.47
2022-11-16T00:30:31.750Z,3.90
2022-11-16T00:31:33.394Z,3.60
2022-11-16T00:32:34.960Z,3.30
2022-11-16T00:33:36.661Z,4.07
2022-11-16T00:34:39.640Z,3.22
2022-11-16T00:35:41.328Z,3.30
2022-11-16T00:36:43.307Z,3.88
2022-11-16T00:37:44.952Z,3.30
2022-11-16T00:38:47.001Z,4.40
2022-11-16T00:39:48.641Z,3.88
2022-11-16T00:40:50.426Z,3.38
2022-11-16T00:41:52.063Z,3.88
2022-11-16T00:42:53.667Z,3.50
2022-11-16T00:43:55.246Z,3.78
2022-11-16T00:44:56.873Z,3.60
2022-11-16T00:45:58.501Z,3.53
2022-11-16T00:47:00.411Z,4.00
2022-11-16T00:48:02.004Z,4.10
2022-11-16T00:49:05.507Z,3.40
2022-11-16T00:50:07.347Z,3.88
2022-11-16T00:51:09.014Z,3.22
2022-11-16T00:52:10.625Z,4.18
2022-11-16T00:53:14.198Z,3.70
2022-11-16T00:54:15.813Z,3.80
2022-11-16T00:55:17.718Z,4.57
2022-11-16T00:56:19.534Z,5.15
2022-11-16T00:57:21.538Z,5.07
2022-11-16T00:58:23.277Z,4.82
2022-11-16T00:59:24.871Z,5.10
2022-11-16T01:00:26.712Z,3.88
2022-11-16T01:01:28.585Z,4.00
2022-11-16T01:02:30.292Z,3.40
2022-11-16T01:03:32.264Z,3.63
2022-11-16T01:04:33.901Z,3.58
2022-11-16T01:05:35.615Z,4.47
2022-11-16T01:06:37.245Z,3.30
2022-11-16T01:07:40.240Z,4.28
2022-11-16T01:08:43.146Z,3.60
2022-11-16T01:09:44.745Z,3.80
2022-11-16T01:10:46.348Z,3.50
2022-11-16T01:12:06.626Z,3.65
2022-11-16T01:13:08.252Z,3.83
2022-11-16T01:14:10.723Z,3.78
2022-11-16T01:15:12.848Z,3.55
2022-11-16T01:16:19.288Z,3.65
2022-11-16T01:17:20.962Z,3.85
2022-11-16T01:18:22.758Z,3.10
2022-11-16T01:19:24.492Z,3.25
2022-11-16T01:20:28.573Z,3.53
2022-11-16T01:21:39.158Z,3.25
2022-11-16T01:22:41.458Z,3.88
2022-11-16T01:23:43.102Z,3.75
2022-11-16T01:24:46.927Z,3.67
2022-11-16T01:26:01.613Z,3.80
2022-11-16T01:27:03.342Z,3.58
2022-11-16T01:28:05.045Z,3.30
2022-11-16T01:29:06.771Z,3.90
2022-11-16T01:30:10.795Z,3.90
2022-11-16T01:31:12.792Z,4.10
2022-11-16T01:32:14.535Z,4.05
2022-11-16T01:33:16.133Z,3.35
2022-11-16T01:34:18.077Z,3.85
2022-11-16T01:35:19.796Z,4.00
2022-11-16T01:36:21.418Z,4.40
2022-11-16T01:37:23.048Z,3.72
2022-11-16T01:38:29.374Z,3.95
2022-11-16T01:39:31.574Z,4.38
2022-11-16T01:40:33.184Z,3.53
2022-11-16T01:41:34.882Z,4.13
2022-11-16T01:42:36.472Z,4.00
2022-11-16T01:43:49.942Z,5.10
2022-11-16T01:44:59.038Z,3.60
2022-11-16T01:46:00.713Z,3.53
2022-11-16T01:47:08.666Z,3.60
2022-11-16T01:48:23.401Z,4.07
2022-11-16T01:49:28.302Z,3.80
2022-11-16T01:50:30.022Z,4.03
2022-11-16T01:51:32.382Z,3.70
2022-11-16T01:52:36.628Z,3.92
2022-11-16T01:53:38.344Z,3.55
2022-11-16T01:54:43.819Z,3.50
2022-11-16T01:55:47.568Z,4.82
2022-11-16T01:56:50.860Z,4.35
2022-11-16T01:57:52.854Z,3.85
2022-11-16T01:58:54.543Z,4.00
2022-11-16T01:59:59.684Z,4.15
2022-11-16T02:01:01.391Z,4.18
2022-11-16T02:02:03.566Z,4.32
2022-11-16T02:03:05.166Z,3.95
2022-11-16T02:04:06.851Z,3.95
2022-11-16T02:05:12.964Z,4.10
2022-11-16T02:06:58.588Z,3.53
2022-11-16T02:08:56.605Z,3.95
2022-11-16T02:10:31.092Z,3.65
2022-11-16T02:11:47.689Z,3.92
2022-11-16T02:13:05.050Z,4.18
2022-11-16T02:14:17.120Z,3.70
2022-11-16T02:15:25.989Z,3.67
2022-11-16T02:17:01.897Z,4.10
2022-11-16T02:18:22.255Z,4.00
2022-11-16T02:20:11.522Z,4.85
2022-11-16T02:21:33.786Z,4.50
2022-11-16T02:22:54.277Z,4.30
2022-11-16T02:24:24.092Z,4.22
2022-11-16T02:26:04.170Z,4.65
2022-11-16T02:27:13.988Z,4.18
2022-11-16T02:28:20.925Z,4.10
2022-11-16T02:29:38.075Z,3.80
2022-11-16T02:30:44.985Z,3.50
2022-11-16T02:31:53.838Z,3.80
2022-11-16T02:33:08.881Z,4.18
2022-11-16T02:34:14.663Z,4.40
2022-11-16T02:35:38.895Z,3.95
2022-11-16T02:36:43.232Z,4.25
2022-11-16T02:37:52.680Z,4.10
2022-11-16T02:39:05.785Z,4.00
2022-11-16T02:40:11.543Z,4.28
2022-11-16T02:41:17.921Z,4.28
2022-11-16T02:42:30.200Z,3.85
2022-11-16T02:43:36.561Z,4.32
2022-11-16T02:44:43.909Z,4.43
2022-11-16T02:45:49.641Z,4.25
2022-11-16T02:47:04.975Z,4.88
2022-11-16T02:48:22.564Z,4.65
2022-11-16T02:49:26.402Z,4.13
2022-11-16T02:50:29.716Z,3.70
2022-11-16T02:51:33.860Z,4.80
2022-11-16T02:52:36.912Z,4.65
2022-11-16T02:53:42.944Z,4.35
2022-11-16T02:54:44.548Z,4.45
2022-11-16T02:55:46.138Z,4.82
2022-11-16T02:57:02.616Z,4.55
2022-11-16T02:58:09.759Z,4.30
2022-11-16T02:59:16.494Z,4.70
2022-11-16T03:00:23.599Z,4.60
2022-11-16T03:01:33.731Z,4.03
2022-11-16T03:02:54.589Z,4.50
2022-11-16T03:04:16.611Z,4.65
2022-11-16T03:05:37.495Z,4.30
2022-11-16T03:06:41.500Z,4.57
2022-11-16T03:07:49.751Z,4.95
2022-11-16T03:09:05.724Z,4.93
2022-11-16T03:10:07.827Z,5.00
2022-11-16T03:11:29.859Z,5.47
2022-11-16T03:12:35.279Z,5.45
2022-11-16T03:13:38.004Z,5.15
2022-11-16T03:14:50.483Z,5.07
2022-11-16T03:15:55.255Z,5.07
2022-11-16T03:16:58.037Z,5.43
2022-11-16T03:18:00.564Z,5.15
2022-11-16T03:19:12.404Z,5.78
2022-11-16T03:20:20.591Z,5.80
2022-11-16T03:21:47.836Z,5.00
2022-11-16T03:22:57.098Z,4.72
2022-11-16T03:23:58.865Z,5.38
2022-11-16T03:25:00.799Z,5.45
2022-11-16T03:26:05.904Z,5.47
2022-11-16T03:27:32.001Z,5.90
2022-11-16T03:28:50.357Z,5.43
2022-11-16T03:30:14.719Z,5.78
2022-11-16T03:31:26.899Z,5.63
2022-11-16T03:32:41.166Z,5.47
2022-11-16T03:33:56.065Z,4.85
2022-11-16T03:35:12.140Z,5.25
2022-11-16T03:36:33.471Z,5.80
2022-11-16T03:37:36.872Z,5.82
2022-11-16T03:38:40.718Z,5.40
2022-11-16T03:39:44.090Z,5.90
2022-11-16T03:40:47.420Z,5.63
2022-11-16T03:41:50.578Z,5.65
2022-11-16T03:42:52.618Z,5.70
2022-11-16T03:43:56.333Z,5.53
2022-11-16T03:44:58.783Z,5.72
2022-11-16T03:46:00.741Z,6.28
2022-11-16T03:47:02.591Z,6.22
2022-11-16T03:48:06.083Z,5.72
2022-11-16T03:49:07.779Z,6.15
2022-11-16T03:50:09.976Z,5.32
2022-11-16T03:51:12.397Z,6.57
2022-11-16T03:52:16.170Z,5.78
2022-11-16T03:53:17.916Z,6.32
2022-11-16T03:54:19.647Z,6.45
2022-11-16T03:55:21.392Z,6.25
2022-11-16T03:56:23.147Z,6.45
2022-11-16T03:57:24.762Z,5.68
2022-11-16T03:58:26.351Z,5.70
2022-11-16T03:59:28.009Z,5.82
2022-11-16T04:00:29.739Z,5.65
2022-11-16T04:01:31.598Z,5.18
2022-11-16T04:02:33.224Z,6.00
2022-11-16T04:03:34.828Z,5.63
2022-11-16T04:04:55.432Z,5.47
2022-11-16T04:06:15.862Z,5.88
2022-11-16T04:07:36.104Z,5.90
2022-11-16T04:08:56.527Z,5.65
2022-11-16T04:10:16.886Z,6.30
2022-11-16T04:11:40.540Z,5.93
2022-11-16T04:13:02.897Z,6.40
2022-11-16T04:14:23.833Z,6.15
2022-11-16T04:15:44.316Z,6.70
2022-11-16T04:17:12.163Z,5.88
2022-11-16T04:18:33.041Z,6.93
2022-11-16T04:19:57.907Z,7.00
2022-11-16T04:21:18.935Z,6.60
2022-11-16T04:22:47.487Z,6.00
2022-11-16T04:24:07.846Z,6.20
2022-11-16T04:25:14.626Z,6.03
2022-11-16T04:26:16.401Z,6.32
2022-11-16T04:27:38.798Z,6.72
2022-11-16T04:28:41.200Z,6.60
2022-11-16T04:29:43.196Z,5.93
2022-11-16T04:31:09.631Z,6.13
2022-11-16T04:32:30.159Z,6.05
2022-11-16T04:33:51.334Z,6.50
2022-11-16T04:35:11.864Z,6.20
2022-11-16T04:36:32.302Z,6.25
2022-11-16T04:37:49.253Z,5.80
2022-11-16T04:38:50.829Z,6.65
2022-11-16T04:39:52.501Z,6.57
2022-11-16T04:40:54.106Z,6.40
2022-11-16T04:42:14.384Z,6.75
2022-11-16T04:43:16.063Z,6.57
2022-11-16T04:44:17.894Z,7.75
2022-11-16T04:45:39.852Z,7.20
2022-11-16T04:47:00.375Z,7.55
2022-11-16T04:48:02.182Z,7.20
2022-11-16T04:49:03.808Z,7.35
2022-11-16T04:50:05.877Z,7.95
2022-11-16T04:51:07.470Z,7.93
2022-11-16T04:52:09.233Z,7.70
2022-11-16T04:53:11.525Z,7.47
2022-11-16T04:54:13.154Z,7.10
2022-11-16T04:55:14.831Z,6.80
2022-11-16T04:56:16.765Z,8.38
2022-11-16T04:57:18.417Z,8.00
2022-11-16T04:58:20.026Z,8.38
2022-11-16T04:59:21.675Z,8.40
2022-11-16T05:00:23.998Z,7.72
2022-11-16T05:01:45.712Z,7.60
2022-11-16T05:02:47.367Z,7.90
2022-11-16T05:03:48.986Z,8.35
2022-11-16T05:04:50.564Z,7.60
2022-11-16T05:05:52.184Z,7.35
2022-11-16T05:06:53.976Z,7.88
2022-11-16T05:07:55.859Z,8.75
2022-11-16T05:08:57.436Z,7.90
2022-11-16T05:09:59.109Z,7.85
2022-11-16T05:11:00.717Z,8.13
2022-11-16T05:12:02.441Z,9.02
2022-11-16T05:13:04.057Z,9.05
2022-11-16T05:14:06.205Z,9.20
2022-11-16T05:15:08.547Z,9.27
2022-11-16T05:16:10.145Z,9.27
2022-11-16T05:17:12.878Z,8.77
2022-11-16T05:18:14.504Z,7.72
2022-11-16T05:19:34.705Z,7.97
2022-11-16T05:20:55.004Z,7.97
2022-11-16T05:21:56.598Z,8.02
2022-11-16T05:22:59.180Z,8.77
2022-11-16T05:24:27.222Z,8.00
2022-11-16T05:25:33.847Z,7.25
2022-11-16T05:26:38.624Z,7.53
2022-11-16T05:27:40.280Z,7.82
2022-11-16T05:28:42.079Z,7.40
2022-11-16T05:29:44.610Z,7.38
2022-11-16T05:30:46.225Z,7.90
2022-11-16T05:31:47.822Z,7.78
2022-11-16T05:32:49.414Z,7.20
2022-11-16T05:33:51.034Z,8.30
2022-11-16T05:34:52.726Z,8.50
2022-11-16T05:35:54.446Z,7.60
2022-11-16T05:36:56.610Z,8.52
2022-11-16T05:37:58.180Z,8.45
2022-11-16T05:38:59.800Z,8.00
2022-11-16T05:40:01.512Z,8.45
2022-11-16T05:41:03.098Z,7.57
2022-11-16T05:42:05.543Z,8.10
2022-11-16T05:43:07.178Z,8.20
2022-11-16T05:44:08.779Z,8.50
2022-11-16T05:45:10.677Z,7.57
2022-11-16T05:46:12.264Z,8.15
2022-11-16T05:47:14.067Z,9.10
2022-11-16T05:48:15.703Z,12.38
2022-11-16T05:49:17.899Z,8.30
2022-11-16T05:50:19.570Z,9.30
2022-11-16T05:51:21.435Z,9.10
2022-11-16T05:52:23.074Z,8.68
2022-11-16T05:53:24.839Z,8.73
2022-11-16T05:54:26.525Z,8.10
2022-11-16T05:55:28.128Z,8.63
2022-11-16T05:56:30.921Z,7.57
2022-11-16T05:57:32.556Z,7.60
2022-11-16T05:58:34.420Z,7.57
2022-11-16T05:59:36.365Z,7.38
2022-11-16T06:00:37.949Z,6.55
2022-11-16T06:01:40.051Z,6.72
2022-11-16T06:02:42.035Z,6.75
2022-11-16T06:03:43.681Z,7.55
2022-11-16T06:04:45.303Z,6.70
2022-11-16T06:05:46.916Z,6.53
2022-11-16T06:06:48.575Z,7.85
2022-11-16T06:07:50.204Z,7.10
2022-11-16T06:08:51.848Z,6.97
2022-11-16T06:09:53.508Z,7.18
2022-11-16T06:10:55.191Z,7.05
2022-11-16T06:11:56.836Z,5.63
2022-11-16T06:12:58.426Z,6.28
2022-11-16T06:14:00.074Z,6.72
2022-11-16T06:15:01.682Z,5.95
2022-11-16T06:16:04.598Z,6.95
2022-11-16T06:17:06.372Z,7.55
2022-11-16T06:18:08.604Z,7.18
2022-11-16T06:19:10.235Z,6.65
2022-11-16T06:20:12.211Z,7.32
2022-11-16T06:21:16.685Z,9.55
2022-11-16T06:22:18.263Z,8.30
2022-11-16T06:23:20.031Z,8.05
2022-11-16T06:24:21.945Z,6.85
2022-11-16T06:25:23.569Z,7.45
2022-11-16T06:26:25.169Z,9.15
2022-11-16T06:27:26.760Z,6.95
2022-11-16T06:28:28.633Z,7.57
2022-11-16T06:29:30.259Z,7.80
2022-11-16T06:30:32.046Z,8.35
2022-11-16T06:31:33.690Z,8.18
2022-11-16T06:32:35.311Z,7.18
2022-11-16T06:33:37.047Z,8.98
2022-11-16T06:34:38.635Z,10.20
2022-11-16T06:35:40.281Z,9.00
2022-11-16T06:36:42.003Z,8.60
2022-11-16T06:37:43.738Z,8.73
2022-11-16T06:38:45.410Z,7.65
2022-11-16T06:39:46.986Z,7.57
2022-11-16T06:40:53.263Z,8.15
2022-11-16T06:41:54.917Z,7.80
2022-11-16T06:42:57.237Z,7.95
2022-11-16T06:43:58.867Z,7.45
2022-11-16T06:45:00.437Z,8.35
2022-11-16T06:46:02.104Z,8.02
2022-11-16T06:47:03.751Z,7.93
2022-11-16T06:48:05.387Z,8.65
2022-11-16T06:49:07.032Z,8.25
2022-11-16T06:50:09.431Z,9.20
2022-11-16T06:51:11.226Z,9.55
2022-11-16T06:52:12.951Z,10.02
2022-11-16T06:53:14.558Z,11.48
2022-11-16T06:54:16.192Z,11.02
2022-11-16T06:55:17.861Z,10.90
2022-11-16T06:56:19.558Z,8.60
2022-11-16T06:57:21.147Z,8.68
2022-11-16T06:58:22.817Z,8.77
2022-11-16T06:59:24.468Z,8.45
2022-11-16T07:00:26.115Z,8.93
2022-11-16T07:01:27.806Z,8.55
2022-11-16T07:02:29.419Z,9.23
2022-11-16T07:03:32.017Z,10.00
2022-11-16T07:04:33.644Z,8.18
2022-11-16T07:05:38.780Z,9.88
2022-11-16T07:06:40.820Z,9.20
2022-11-16T07:07:42.432Z,8.90
2022-11-16T07:08:44.125Z,7.78
2022-11-16T07:09:45.709Z,8.15
2022-11-16T07:10:47.330Z,8.07
2022-11-16T07:11:49.019Z,9.77
2022-11-16T07:12:50.655Z,7.72
2022-11-16T07:13:52.379Z,9.23
2022-11-16T07:14:53.982Z,8.07
2022-11-16T07:16:01.195Z,8.70
2022-11-16T07:17:08.078Z,9.23
2022-11-16T07:18:11.014Z,9.65
2022-11-16T07:19:12.773Z,8.57
2022-11-16T07:20:14.361Z,8.30
2022-11-16T07:21:17.226Z,8.80
2022-11-16T07:22:18.830Z,7.75
2022-11-16T07:23:20.694Z,7.75
2022-11-16T07:24:22.290Z,8.50
2022-11-16T07:25:23.867Z,8.25
2022-11-16T07:26:25.461Z,8.05
2022-11-16T07:27:27.078Z,8.82
2022-11-16T07:28:29.866Z,8.32
2022-11-16T07:29:31.537Z,8.98
2022-11-16T07:30:33.131Z,9.13
2022-11-16T07:31:34.742Z,9.05
2022-11-16T07:32:39.735Z,8.45
2022-11-16T07:33:41.432Z,8.32
2022-11-16T07:34:42.999Z,9.35
2022-11-16T07:35:44.584Z,9.75
2022-11-16T07:36:46.423Z,9.18
2022-11-16T07:37:48.033Z,7.63
2022-11-16T07:38:49.614Z,9.93
2022-11-16T07:39:51.271Z,9.52
2022-11-16T07:40:52.878Z,8.00
2022-11-16T07:41:54.550Z,8.95
2022-11-16T07:42:58.421Z,8.60
2022-11-16T07:44:01.030Z,9.35
2022-11-16T07:45:02.638Z,9.55
2022-11-16T07:46:44.825Z,9.50
2022-11-16T07:47:35.930Z,9.35
2022-11-16T07:48:37.548Z,8.30
2022-11-16T07:49:39.440Z,8.85
2022-11-16T07:50:41.045Z,8.48
2022-11-16T07:51:43.260Z,8.75
2022-11-16T07:52:47.777Z,10.13
2022-11-16T07:53:53.467Z,9.70
2022-11-16T07:54:55.049Z,9.05
2022-11-16T07:55:57.380Z,9.30
2022-11-16T07:56:58.949Z,8.23
2022-11-16T07:58:00.914Z,8.30
2022-11-16T07:59:02.721Z,9.13
2022-11-16T08:00:06.005Z,8.43
2022-11-16T08:01:11.230Z,8.80
2022-11-16T08:02:12.832Z,8.13
2022-11-16T08:03:16.503Z,8.25
2022-11-16T08:04:21.051Z,9.20
2022-11-16T08:05:22.646Z,10.40
2022-11-16T08:06:27.166Z,9.25
2022-11-16T08:07:28.791Z,9.55
2022-11-16T08:08:31.214Z,9.10
2022-11-16T08:09:34.701Z,8.40
2022-11-16T08:10:36.604Z,9.40
2022-11-16T08:11:38.245Z,7.88
2022-11-16T08:12:39.842Z,9.38
2022-11-16T08:13:42.093Z,8.88
2022-11-16T08:14:43.770Z,9.20
2022-11-16T08:15:45.366Z,8.55
2022-11-16T08:16:46.990Z,8.57
2022-11-16T08:17:48.658Z,8.18
2022-11-16T08:18:50.496Z,9.13
2022-11-16T08:19:53.562Z,9.30
2022-11-16T08:20:55.187Z,9.48
2022-11-16T08:21:56.782Z,8.75
2022-11-16T08:23:01.051Z,8.38
2022-11-16T08:24:02.819Z,8.43
2022-11-16T08:25:05.029Z,8.20
2022-11-16T08:26:14.258Z,9.38
2022-11-16T08:27:17.369Z,7.93
2022-11-16T08:28:18.955Z,8.80
2022-11-16T08:29:20.811Z,8.90
2022-11-16T08:30:22.508Z,8.20
2022-11-16T08:31:27.829Z,8.05
2022-11-16T08:32:31.958Z,8.38
2022-11-16T08:33:33.542Z,10.00
2022-11-16T08:34:35.178Z,8.82
2022-11-16T08:35:37.316Z,9.60
2022-11-16T08:36:38.925Z,8.60
2022-11-16T08:37:40.532Z,9.38
2022-11-16T08:38:42.136Z,9.00
2022-11-16T08:39:43.758Z,9.20
2022-11-16T08:40:45.746Z,8.63
2022-11-16T08:41:47.377Z,9.68
2022-11-16T08:42:49.022Z,9.93
2022-11-16T08:43:50.907Z,9.40
2022-11-16T08:44:52.555Z,9.32
2022-11-16T08:45:54.248Z,9.50
2022-11-16T08:46:55.905Z,9.43
2022-11-16T08:48:03.443Z,10.18
2022-11-16T08:49:05.482Z,10.75
2022-11-16T08:50:07.369Z,9.10
2022-11-16T08:51:19.995Z,9.55
2022-11-16T08:52:22.583Z,8.85
2022-11-16T08:53:24.179Z,9.73
2022-11-16T08:54:28.853Z,9.25
2022-11-16T08:55:30.448Z,9.75
2022-11-16T08:56:34.260Z,9.05
2022-11-16T08:57:36.429Z,8.95
2022-11-16T08:58:39.009Z,8.57
2022-11-16T08:59:40.616Z,9.18
2022-11-16T09:00:42.275Z,8.90
2022-11-16T09:01:44.039Z,9.57
2022-11-16T09:02:45.688Z,10.23
2022-11-16T09:03:47.582Z,10.25
2022-11-16T09:04:49.173Z,9.90
2022-11-16T09:05:50.822Z,10.05
2022-11-16T09:06:53.062Z,9.43
2022-11-16T09:07:54.739Z,10.43
2022-11-16T09:08:56.467Z,9.45
2022-11-16T09:09:58.054Z,10.05
2022-11-16T09:10:59.838Z,9.40
2022-11-16T09:12:01.513Z,10.35
2022-11-16T09:13:03.661Z,9.70
2022-11-16T09:14:05.288Z,9.45
2022-11-16T09:15:07.392Z,9.00
2022-11-16T09:16:09.193Z,9.05
2022-11-16T09:17:11.066Z,9.70
2022-11-16T09:18:12.657Z,9.52
2022-11-16T09:19:14.342Z,10.13
2022-11-16T09:20:16.073Z,9.55
2022-11-16T09:21:26.139Z,9.90
2022-11-16T09:22:27.788Z,9.60
2022-11-16T09:23:29.403Z,10.38
2022-11-16T09:24:31.366Z,9.88
2022-11-16T09:25:32.987Z,8.85
2022-11-16T09:26:34.579Z,9.90
2022-11-16T09:27:36.361Z,9.60
2022-11-16T09:28:38.140Z,9.20
2022-11-16T09:29:39.737Z,9.10
2022-11-16T09:30:42.261Z,9.77
2022-11-16T09:31:43.902Z,8.90
2022-11-16T09:32:45.521Z,9.60
2022-11-16T09:33:47.706Z,9.88
2022-11-16T09:34:49.332Z,9.30
2022-11-16T09:35:50.920Z,9.35
2022-11-16T09:36:52.592Z,9.40
2022-11-16T09:37:54.404Z,9.65
2022-11-16T09:39:25.829Z,9.70
2022-11-16T09:40:18.145Z,7.85
2022-11-16T09:41:44.069Z,8.07
2022-11-16T09:43:10.257Z,8.25
2022-11-16T09:44:38.268Z,8.90
2022-11-16T09:45:51.592Z,10.00
2022-11-16T09:46:57.343Z,9.50
2022-11-16T09:48:02.784Z,9.25
2022-11-16T09:49:17.433Z,9.77
2022-11-16T09:50:27.114Z,9.43
2022-11-16T09:51:33.566Z,10.02
2022-11-16T09:52:44.709Z,11.23
2022-11-16T09:53:55.533Z,12.43
2022-11-16T09:55:01.839Z,12.32
2022-11-16T09:56:14.513Z,10.10
2022-11-16T09:57:28.165Z,11.95
2022-11-16T09:58:40.644Z,12.43
2022-11-16T09:59:47.767Z,11.98
2022-11-16T10:00:57.332Z,12.10
2022-11-16T10:02:29.532Z,9.60
2022-11-16T10:03:38.252Z,10.85
2022-11-16T10:05:10.599Z,8.68
2022-11-16T10:06:27.595Z,13.00
2022-11-16T10:07:38.563Z,10.45
2022-11-16T10:08:51.271Z,9.30
2022-11-16T10:09:53.722Z,8.90
2022-11-16T10:11:23.264Z,10.32
2022-11-16T10:12:46.218Z,14.30
2022-11-16T10:14:16.496Z,11.10
2022-11-16T10:15:44.361Z,10.00
2022-11-16T10:17:08.223Z,8.75
2022-11-16T10:18:33.970Z,7.22
2022-11-16T10:19:56.070Z,7.30
2022-11-16T10:21:22.504Z,6.13
2022-11-16T10:22:46.431Z,5.60
2022-11-16T10:24:09.293Z,5.18
2022-11-16T10:25:21.831Z,5.38
2022-11-16T10:26:27.924Z,5.00
2022-11-16T10:28:15.423Z,4.90
2022-11-16T10:29:55.134Z,5.60
2022-11-16T10:31:22.671Z,5.45
2022-11-16T10:32:34.527Z,5.50
2022-11-16T10:33:38.441Z,5.30
2022-11-16T10:34:51.384Z,4.63
2022-11-16T10:35:56.924Z,5.80
2022-11-16T10:37:07.664Z,7.40
2022-11-16T10:38:20.085Z,7.63
2022-11-16T10:39:22.251Z,7.85
2022-11-16T10:40:37.120Z,8.43
2022-11-16T10:41:46.045Z,7.30
2022-11-16T10:42:58.802Z,7.57
2022-11-16T10:44:00.845Z,8.30
2022-11-16T10:45:09.790Z,6.95
2022-11-16T10:46:14.309Z,6.57
2022-11-16T10:47:33.612Z,7.30
2022-11-16T10:48:59.268Z,9.00
2022-11-16T10:50:40.749Z,9.18
2022-11-16T10:51:43.063Z,8.80
2022-11-16T10:52:44.676Z,8.98
2022-11-16T10:53:46.765Z,9.85
2022-11-16T10:54:48.356Z,7.93
2022-11-16T10:56:13.143Z,6.07
2022-11-16T10:57:14.882Z,7.93
2022-11-16T10:58:16.576Z,8.35
2022-11-16T10:59:21.709Z,6.00
2022-11-16T11:00:43.733Z,7.30
2022-11-16T11:01:57.412Z,5.75
2022-11-16T11:02:59.057Z,6.47
2022-11-16T11:04:24.431Z,6.28
2022-11-16T11:05:26.895Z,5.93
2022-11-16T11:06:28.569Z,5.45
2022-11-16T11:07:33.009Z,5.97
2022-11-16T11:08:34.718Z,6.32
2022-11-16T11:09:37.983Z,8.27
2022-11-16T11:10:41.874Z,7.53
2022-11-16T11:12:36.070Z,7.68
2022-11-16T11:13:37.940Z,6.70
2022-11-16T11:14:39.562Z,7.40
2022-11-16T11:15:43.015Z,8.43
2022-11-16T11:16:44.642Z,7.85
2022-11-16T11:17:48.129Z,7.72
2022-11-16T11:18:51.325Z,7.00
2022-11-16T11:20:02.051Z,7.18
2022-11-16T11:21:15.427Z,7.00
2022-11-16T11:22:17.031Z,8.05
2022-11-16T11:23:21.819Z,14.73
2022-11-16T11:24:52.250Z,11.43
2022-11-16T11:26:03.700Z,23.35
2022-11-16T11:27:05.767Z,11.57
2022-11-16T11:28:10.527Z,10.23
2022-11-16T11:29:26.248Z,15.95
2022-11-16T11:30:28.478Z,9.07
2022-11-16T11:31:38.205Z,15.15
2022-11-16T11:32:40.447Z,17.88
2022-11-16T11:33:58.098Z,15.68
2022-11-16T11:35:01.019Z,10.48
2022-11-16T11:36:30.703Z,8.63
2022-11-16T11:37:38.214Z,8.65
2022-11-16T11:39:21.016Z,7.93
2022-11-16T11:40:26.997Z,8.50
2022-11-16T11:41:34.421Z,8.35
2022-11-16T11:42:41.511Z,8.15
2022-11-16T11:43:43.097Z,8.98
2022-11-16T11:45:01.686Z,7.90
2022-11-16T11:46:18.372Z,8.50
2022-11-16T11:47:57.781Z,10.30
2022-11-16T11:49:11.866Z,9.10
2022-11-16T11:50:16.694Z,7.30
2022-11-16T11:51:27.430Z,8.30
2022-11-16T11:52:50.203Z,9.00
2022-11-16T11:53:57.662Z,12.27
2022-11-16T11:55:02.275Z,8.80
2022-11-16T11:56:04.105Z,8.52
2022-11-16T11:57:15.507Z,11.82
2022-11-16T11:58:19.682Z,9.35
2022-11-16T11:59:25.099Z,8.88
2022-11-16T12:00:26.824Z,11.00
2022-11-16T12:01:55.779Z,8.65
2022-11-16T12:03:19.183Z,7.80
2022-11-16T12:04:48.547Z,8.45
2022-11-16T12:06:19.301Z,8.25
2022-11-16T12:07:40.018Z,7.95
2022-11-16T12:09:19.023Z,7.75
2022-11-16T12:10:35.002Z,7.43
2022-11-16T12:12:03.035Z,7.80
2022-11-16T12:13:31.350Z,7.68
2022-11-16T12:14:49.375Z,7.22
2022-11-16T12:16:18.305Z,7.65
2022-11-16T12:17:55.401Z,7.13
2022-11-16T12:19:14.667Z,7.05
2022-11-16T12:20:22.719Z,7.05
2022-11-16T12:21:57.639Z,8.27
2022-11-16T12:23:24.382Z,10.30
2022-11-16T12:24:47.234Z,9.48
2022-11-16T12:26:05.359Z,10.82
2022-11-16T12:27:18.595Z,19.02
2022-11-16T12:28:41.284Z,14.07
2022-11-16T12:30:07.457Z,7.80
2022-11-16T12:31:41.536Z,6.80
2022-11-16T12:32:54.056Z,7.55
2022-11-16T12:34:07.419Z,8.32
2022-11-16T12:35:29.581Z,7.90
2022-11-16T12:37:09.029Z,7.63
2022-11-16T12:38:55.458Z,7.03
2022-11-16T12:40:36.432Z,6.65
2022-11-16T12:41:55.500Z,7.00
2022-11-16T12:43:12.438Z,6.03
2022-11-16T12:44:30.281Z,6.50
2022-11-16T12:46:12.415Z,6.57
2022-11-16T12:47:30.570Z,6.63
2022-11-16T12:48:41.727Z,7.15
2022-11-16T12:50:04.511Z,9.18
2022-11-16T12:51:39.551Z,7.30
2022-11-16T12:52:56.272Z,6.70
2022-11-16T12:55:18.694Z,7.90
2022-11-16T12:56:15.958Z,7.88
2022-11-16T12:57:17.521Z,8.20
2022-11-16T12:58:46.547Z,7.05
2022-11-16T13:00:10.404Z,6.65
2022-11-16T13:01:22.035Z,6.57
2022-11-16T13:02:43.271Z,7.75
2022-11-16T13:04:09.528Z,7.82
2022-11-16T13:05:20.172Z,8.20
2022-11-16T13:06:32.637Z,6.85
2022-11-16T13:07:44.341Z,7.93
2022-11-16T13:09:12.924Z,7.22
2022-11-16T13:10:29.213Z,7.20
2022-11-16T13:11:37.219Z,6.65
2022-11-16T13:12:39.430Z,6.25
2022-11-16T13:13:45.710Z,6.97
2022-11-16T13:14:56.009Z,8.93
2022-11-16T13:16:01.943Z,7.53
2022-11-16T13:17:05.538Z,9.13
2022-11-16T13:18:14.348Z,9.23
2022-11-16T13:19:17.986Z,6.65
2022-11-16T13:20:47.321Z,6.57
2022-11-16T13:22:03.427Z,6.85
2022-11-16T13:23:11.404Z,7.60
2022-11-16T13:24:40.375Z,7.65
2022-11-16T13:25:50.701Z,6.82
2022-11-16T13:27:30.253Z,6.13
2022-11-16T13:29:00.885Z,6.25
2022-11-16T13:30:21.233Z,6.10
2022-11-16T13:31:29.168Z,6.30
2022-11-16T13:32:56.996Z,5.47
2022-11-16T13:34:06.243Z,5.60
2022-11-16T13:35:15.458Z,5.70
2022-11-16T13:36:31.881Z,6.23
2022-11-16T13:37:39.582Z,5.10
2022-11-16T13:38:53.055Z,5.73
2022-11-16T13:39:57.530Z,6.10
2022-11-16T13:41:34.781Z,6.60
2022-11-16T13:42:43.725Z,4.90
2022-11-16T13:43:49.687Z,6.10
2022-11-16T13:44:52.105Z,5.30
2022-11-16T13:45:59.224Z,7.03
2022-11-16T13:47:04.783Z,6.70
2022-11-16T13:48:19.632Z,5.63
2022-11-16T13:49:31.761Z,5.63
2022-11-16T13:51:39.313Z,5.00
2022-11-16T13:53:23.464Z,5.55
2022-11-16T13:55:29.974Z,5.53
2022-11-16T13:56:48.131Z,5.85
2022-11-16T13:57:55.259Z,6.40
2022-11-16T13:58:58.222Z,6.35
2022-11-16T14:00:02.910Z,5.82
2022-11-16T14:01:16.095Z,6.05
2022-11-16T14:02:37.703Z,6.18
2022-11-16T14:03:41.415Z,6.65
2022-11-16T14:04:59.733Z,6.22
2022-11-16T14:06:01.345Z,7.38
2022-11-16T14:07:03.137Z,6.70
2022-11-16T14:08:40.096Z,7.00
2022-11-16T14:09:47.730Z,6.18
2022-11-16T14:10:50.013Z,6.50
2022-11-16T14:11:51.628Z,6.25
2022-11-16T14:12:54.574Z,5.70
2022-11-16T14:13:56.671Z,6.30
2022-11-16T14:15:18.898Z,6.60
2022-11-16T14:16:21.399Z,6.40
2022-11-16T14:17:57.083Z,6.65
2022-11-16T14:19:01.531Z,7.03
2022-11-16T14:20:04.613Z,6.72
2022-11-16T14:21:10.487Z,7.35
2022-11-16T14:22:21.202Z,7.10
2022-11-16T14:23:49.077Z,6.80
2022-11-16T14:24:58.180Z,5.95
2022-11-16T14:26:02.549Z,6.03
2022-11-16T14:27:18.828Z,8.15
2022-11-16T14:28:54.125Z,9.27
2022-11-16T14:30:10.000Z,10.40
2022-11-16T14:31:23.665Z,11.05
2022-11-16T14:32:46.730Z,10.05
2022-11-16T14:33:54.443Z,10.07
2022-11-16T14:34:58.713Z,11.32
2022-11-16T14:36:03.339Z,10.68
2022-11-16T14:37:05.366Z,12.32
2022-11-16T14:38:28.861Z,11.68
2022-11-16T14:39:37.562Z,12.38
2022-11-16T14:40:57.833Z,13.05
2022-11-16T14:42:07.527Z,12.90
2022-11-16T14:43:21.636Z,13.45
2022-11-16T14:44:28.379Z,15.85
2022-11-16T14:45:33.499Z,14.40
2022-11-16T14:46:37.048Z,14.38
2022-11-16T14:47:39.203Z,13.05
2022-11-16T14:48:45.410Z,13.88
2022-11-16T14:49:48.093Z,13.57
2022-11-16T14:51:09.711Z,13.85
2022-11-16T14:52:13.817Z,14.13
2022-11-16T14:53:19.423Z,15.93
2022-11-16T14:55:03.659Z,15.38
2022-11-16T14:56:11.445Z,13.90
2022-11-16T14:57:18.667Z,14.20
2022-11-16T14:58:22.939Z,14.27
2022-11-16T14:59:24.857Z,15.02
2022-11-16T15:00:26.595Z,15.30
2022-11-16T15:01:31.341Z,15.35
2022-11-16T15:02:34.252Z,15.48
2022-11-16T15:03:55.480Z,14.77
2022-11-16T15:04:57.163Z,15.15
2022-11-16T15:06:00.787Z,15.02
2022-11-16T15:07:04.931Z,16.20